Time;durP1;ratioP1;P1;durP2;ratioP2;P2;SDS_P1;SDS_P2;PMS_P1;PMS_P2;Temp;Humidity;BMP_temperature;BMP_pressure;BME280_temperature;BME280_humidity;BME280_pressure;Samples;Min_cycle;Max_cycle;Signal;HPM_P1;HPM_P2
2023/12/22 00:00:05;;;;;;;7.00;6.40;;;;;;;;;;4914906;29;20091;-74
2023/12/22 00:02:32;;;;;;;5.75;5.25;;;;;;;;;;4914472;29;20546;-73
2023/12/22 00:04:58;;;;;;;5.35;4.90;;;;;;;;;;4914124;29;20040;-73
2023/12/22 00:07:24;;;;;;;6.03;5.53;;;;;;;;;;4897300;29;20036;-74
2023/12/22 00:09:50;;;;;;;4.03;3.55;;;;;;;;;;4913942;29;20550;-75
2023/12/22 00:12:17;;;;;;;7.95;6.28;;;;;;;;;;4914955;29;20047;-74
2023/12/22 00:14:44;;;;;;;8.15;6.60;;;;;;;;;;4914092;29;20036;-74
2023/12/22 00:17:10;;;;;;;6.80;6.30;;;;;;;;;;4914145;29;20039;-74
2023/12/22 00:19:36;;;;;;;6.05;4.75;;;;;;;;;;4913608;29;20044;-74
2023/12/22 00:22:03;;;;;;;7.82;7.15;;;;;;;;;;4896628;29;20031;-74
2023/12/22 00:24:29;;;;;;;6.72;5.18;;;;;;;;;;4909741;29;20032;-73
2023/12/22 00:26:57;;;;;;;6.45;5.53;;;;;;;;;;4913882;29;20114;-73
2023/12/22 00:29:24;;;;;;;5.55;5.05;;;;;;;;;;4897394;29;20044;-74
2023/12/22 00:31:52;;;;;;;6.60;5.95;;;;;;;;;;4897181;29;20040;-74
2023/12/22 00:34:19;;;;;;;5.18;4.45;;;;;;;;;;4913334;29;20095;-75
2023/12/22 00:36:46;;;;;;;5.78;5.28;;;;;;;;;;4896401;29;20510;-74
2023/12/22 00:39:12;;;;;;;5.85;5.40;;;;;;;;;;4896293;29;20048;-74
2023/12/22 00:41:37;;;;;;;5.40;4.88;;;;;;;;;;4914140;29;20098;-73
2023/12/22 00:44:03;;;;;;;7.30;6.60;;;;;;;;;;4914049;29;20428;-74
2023/12/22 00:46:29;;;;;;;7.40;6.10;;;;;;;;;;4896255;29;20048;-74
2023/12/22 00:48:55;;;;;;;6.03;5.15;;;;;;;;;;4912552;29;20028;-74
2023/12/22 00:51:21;;;;;;;6.47;5.97;;;;;;;;;;4913064;29;20418;-74
2023/12/22 00:53:47;;;;;;;7.75;7.05;;;;;;;;;;4913114;29;20036;-73
2023/12/22 00:56:13;;;;;;;9.13;7.50;;;;;;;;;;4913975;29;20028;-74
2023/12/22 00:58:39;;;;;;;7.32;6.72;;;;;;;;;;4912982;29;20036;-73
2023/12/22 01:01:05;;;;;;;11.10;6.90;;;;;;;;;;4912800;29;20521;-74
2023/12/22 01:03:31;;;;;;;6.72;6.15;;;;;;;;;;4880463;29;20029;-73
2023/12/22 01:05:57;;;;;;;8.75;7.82;;;;;;;;;;4895777;29;20063;-74
2023/12/22 01:08:23;;;;;;;6.88;6.22;;;;;;;;;;4913777;29;20039;-74
2023/12/22 01:10:49;;;;;;;8.38;7.57;;;;;;;;;;4912910;29;20047;-73
2023/12/22 01:13:15;;;;;;;6.10;5.55;;;;;;;;;;4912665;29;20032;-73
2023/12/22 01:15:40;;;;;;;7.25;6.63;;;;;;;;;;4912630;29;20072;-74
2023/12/22 01:18:06;;;;;;;7.13;6.40;;;;;;;;;;4911193;29;20040;-73
2023/12/22 01:20:32;;;;;;;6.65;6.05;;;;;;;;;;4913506;29;20087;-73
2023/12/22 01:22:58;;;;;;;7.68;6.95;;;;;;;;;;4927648;29;20043;-74
2023/12/22 01:25:24;;;;;;;7.80;6.95;;;;;;;;;;4912192;29;20052;-73
2023/12/22 01:27:52;;;;;;;7.05;6.35;;;;;;;;;;4895773;29;20071;-72
2023/12/22 01:30:18;;;;;;;7.55;6.85;;;;;;;;;;4912283;29;20106;-74
2023/12/22 01:32:44;;;;;;;6.22;5.72;;;;;;;;;;4895489;29;20035;-73
2023/12/22 01:35:10;;;;;;;5.95;5.43;;;;;;;;;;4896270;29;20036;-74
2023/12/22 01:37:36;;;;;;;6.45;5.88;;;;;;;;;;4895363;29;20119;-74
2023/12/22 01:40:03;;;;;;;5.20;4.80;;;;;;;;;;4880159;29;20040;-73
2023/12/22 01:42:30;;;;;;;7.85;6.88;;;;;;;;;;4912113;29;20035;-72
2023/12/22 01:44:56;;;;;;;6.15;5.55;;;;;;;;;;4912304;29;20056;-75
2023/12/22 01:47:22;;;;;;;5.82;5.32;;;;;;;;;;4896341;29;20040;-74
2023/12/22 01:49:48;;;;;;;8.07;7.38;;;;;;;;;;4895639;29;20047;-74
2023/12/22 01:52:14;;;;;;;6.22;5.60;;;;;;;;;;4911535;29;20114;-74
2023/12/22 01:54:40;;;;;;;6.32;5.82;;;;;;;;;;4880058;29;20042;-74
2023/12/22 01:57:06;;;;;;;5.05;4.70;;;;;;;;;;4911989;29;20633;-75
2023/12/22 01:59:34;;;;;;;6.07;5.55;;;;;;;;;;4895152;29;20102;-75
2023/12/22 02:02:01;;;;;;;6.07;5.47;;;;;;;;;;4905295;29;20035;-75
2023/12/22 02:04:27;;;;;;;4.65;4.25;;;;;;;;;;4912457;29;20040;-75
2023/12/22 02:06:53;;;;;;;6.45;5.80;;;;;;;;;;4917989;29;20982;-75
2023/12/22 02:09:18;;;;;;;7.10;6.40;;;;;;;;;;4922487;29;20051;-75
2023/12/22 02:11:44;;;;;;;6.88;6.25;;;;;;;;;;4921244;29;20039;-74
2023/12/22 02:14:10;;;;;;;10.52;6.55;;;;;;;;;;4913334;29;20499;-76
2023/12/22 02:16:42;;;;;;;5.57;5.07;;;;;;;;;;4886298;29;20040;-75
2023/12/22 02:19:16;;;;;;;6.18;5.57;;;;;;;;;;4911690;29;20119;-74
2023/12/22 02:22:02;;;;;;;6.85;6.20;;;;;;;;;;4879510;29;20282;-74
2023/12/22 02:24:30;;;;;;;5.50;5.03;;;;;;;;;;4917554;29;20135;-74
2023/12/22 02:26:56;;;;;;;6.22;5.72;;;;;;;;;;4911748;29;20036;-74
2023/12/22 02:29:22;;;;;;;7.50;6.85;;;;;;;;;;4893838;29;20404;-74
2023/12/22 02:31:49;;;;;;;6.50;5.90;;;;;;;;;;4911571;29;20095;-74
2023/12/22 02:34:18;;;;;;;6.85;6.25;;;;;;;;;;4894520;29;20028;-74
2023/12/22 02:36:44;;;;;;;7.43;6.85;;;;;;;;;;4895599;29;20600;-74
2023/12/22 02:39:10;;;;;;;7.50;6.80;;;;;;;;;;4912580;29;20040;-74
2023/12/22 02:41:36;;;;;;;7.57;6.97;;;;;;;;;;4894644;29;20035;-75
2023/12/22 02:44:02;;;;;;;7.35;6.75;;;;;;;;;;4895277;29;20043;-75
2023/12/22 02:46:27;;;;;;;7.90;7.25;;;;;;;;;;4915099;29;20126;-75
2023/12/22 02:48:53;;;;;;;8.57;7.68;;;;;;;;;;4915353;29;21352;-75
2023/12/22 02:51:19;;;;;;;8.05;7.25;;;;;;;;;;4912768;29;20048;-74
2023/12/22 02:53:45;;;;;;;8.77;7.90;;;;;;;;;;4911419;29;20035;-74
2023/12/22 02:56:11;;;;;;;8.20;7.50;;;;;;;;;;4911050;29;20062;-75
2023/12/22 02:58:36;;;;;;;9.10;7.50;;;;;;;;;;4911789;29;20036;-75
2023/12/22 03:01:02;;;;;;;8.27;7.43;;;;;;;;;;4911684;29;20039;-75
2023/12/22 03:03:28;;;;;;;7.68;6.95;;;;;;;;;;4914369;29;20583;-75
2023/12/22 03:05:54;;;;;;;7.63;6.93;;;;;;;;;;4898229;29;20232;-75
2023/12/22 03:08:20;;;;;;;8.52;6.70;;;;;;;;;;4898728;29;20122;-74
2023/12/22 03:10:46;;;;;;;7.30;6.68;;;;;;;;;;4915361;29;20044;-74
2023/12/22 03:13:11;;;;;;;8.70;7.85;;;;;;;;;;4875229;29;20036;-74
2023/12/22 03:15:37;;;;;;;8.13;7.32;;;;;;;;;;4915893;29;20036;-74
2023/12/22 03:18:03;;;;;;;6.72;6.18;;;;;;;;;;4915626;29;20044;-75
2023/12/22 03:20:29;;;;;;;7.32;6.68;;;;;;;;;;4914958;29;20040;-75
2023/12/22 03:22:55;;;;;;;8.73;7.82;;;;;;;;;;4897996;29;20024;-74
2023/12/22 03:25:21;;;;;;;8.40;7.60;;;;;;;;;;4897851;29;20095;-75
2023/12/22 03:27:47;;;;;;;7.88;7.18;;;;;;;;;;4914839;29;20455;-75
2023/12/22 03:30:13;;;;;;;9.40;8.52;;;;;;;;;;4915723;29;20040;-76
2023/12/22 03:32:39;;;;;;;7.68;6.97;;;;;;;;;;4914888;29;20036;-77
2023/12/22 03:35:05;;;;;;;8.30;7.55;;;;;;;;;;4914802;29;20099;-77
2023/12/22 03:37:32;;;;;;;6.38;5.93;;;;;;;;;;4914486;29;20032;-76
2023/12/22 03:39:57;;;;;;;7.57;6.82;;;;;;;;;;4897629;29;20084;-77
2023/12/22 03:42:23;;;;;;;7.68;6.97;;;;;;;;;;4914707;29;20059;-78
2023/12/22 03:44:49;;;;;;;7.93;7.22;;;;;;;;;;4897427;29;20052;-77
2023/12/22 03:47:15;;;;;;;9.10;8.27;;;;;;;;;;4898044;29;20064;-77
2023/12/22 03:49:41;;;;;;;6.90;6.30;;;;;;;;;;4897729;29;20039;-76
2023/12/22 03:52:07;;;;;;;7.40;6.65;;;;;;;;;;4913686;29;20039;-76
2023/12/22 03:54:33;;;;;;;9.57;8.73;;;;;;;;;;4882753;29;20514;-76
2023/12/22 03:56:59;;;;;;;10.68;8.88;;;;;;;;;;4914743;29;20040;-75
2023/12/22 03:59:24;;;;;;;7.20;6.60;;;;;;;;;;4914021;29;20032;-76
2023/12/22 04:01:52;;;;;;;7.88;6.75;;;;;;;;;;4913088;29;20137;-75
2023/12/22 04:04:18;;;;;;;8.93;7.57;;;;;;;;;;4897130;29;20052;-75
2023/12/22 04:06:43;;;;;;;9.10;7.78;;;;;;;;;;4913942;29;20063;-76
2023/12/22 04:09:09;;;;;;;9.38;8.27;;;;;;;;;;4897309;29;20051;-76
2023/12/22 04:11:36;;;;;;;8.13;7.40;;;;;;;;;;4896807;29;20052;-76
2023/12/22 04:14:02;;;;;;;10.60;9.43;;;;;;;;;;4927955;29;20040;-76
2023/12/22 04:16:28;;;;;;;11.90;9.93;;;;;;;;;;4912981;29;20036;-76
2023/12/22 04:18:54;;;;;;;7.22;6.60;;;;;;;;;;4897136;29;20043;-75
2023/12/22 04:21:20;;;;;;;7.47;6.78;;;;;;;;;;4894880;29;20037;-76
2023/12/22 04:23:46;;;;;;;7.57;6.97;;;;;;;;;;4928009;29;20051;-75
2023/12/22 04:26:11;;;;;;;9.05;6.82;;;;;;;;;;4913606;29;20412;-77
2023/12/22 04:28:37;;;;;;;6.80;6.10;;;;;;;;;;4897993;29;20064;-77
2023/12/22 04:31:03;;;;;;;14.48;11.82;;;;;;;;;;4896595;29;20410;-76
2023/12/22 04:33:29;;;;;;;11.38;10.10;;;;;;;;;;4896350;29;20472;-77
2023/12/22 04:35:55;;;;;;;15.07;12.27;;;;;;;;;;4928226;29;20036;-76
2023/12/22 04:38:21;;;;;;;9.85;8.38;;;;;;;;;;4912549;29;20039;-76
2023/12/22 04:40:47;;;;;;;11.05;9.25;;;;;;;;;;4896906;29;20414;-76
2023/12/22 04:43:12;;;;;;;13.10;10.73;;;;;;;;;;4896991;29;20503;-76
2023/12/22 04:45:38;;;;;;;12.45;11.30;;;;;;;;;;4912705;29;20048;-78
2023/12/22 04:48:04;;;;;;;10.70;9.65;;;;;;;;;;4914727;29;20459;-77
2023/12/22 04:50:30;;;;;;;11.85;10.68;;;;;;;;;;4916045;29;20028;-78
2023/12/22 04:52:56;;;;;;;12.82;11.55;;;;;;;;;;4914474;29;20502;-78
2023/12/22 04:55:22;;;;;;;11.93;10.80;;;;;;;;;;4914530;29;20559;-78
2023/12/22 04:57:48;;;;;;;15.50;13.85;;;;;;;;;;4913236;29;20051;-77
2023/12/22 05:00:14;;;;;;;12.70;11.32;;;;;;;;;;4913432;29;20123;-77
2023/12/22 05:02:41;;;;;;;13.82;12.35;;;;;;;;;;4921216;29;20048;-75
2023/12/22 05:05:08;;;;;;;11.40;9.45;;;;;;;;;;4915062;29;20044;-76
2023/12/22 05:07:34;;;;;;;15.23;13.82;;;;;;;;;;4908973;29;20173;-78
2023/12/22 05:10:00;;;;;;;12.13;10.93;;;;;;;;;;4900343;29;20059;-77
2023/12/22 05:12:26;;;;;;;15.20;12.93;;;;;;;;;;4932799;29;20502;-77
2023/12/22 05:14:52;;;;;;;10.38;9.35;;;;;;;;;;4919072;29;20047;-77
2023/12/22 05:17:17;;;;;;;10.10;9.07;;;;;;;;;;4897581;29;20407;-76
2023/12/22 05:19:43;;;;;;;13.15;10.88;;;;;;;;;;4912606;29;20082;-77
2023/12/22 05:22:09;;;;;;;21.27;15.45;;;;;;;;;;4912465;29;20028;-75
2023/12/22 05:24:36;;;;;;;13.80;11.90;;;;;;;;;;4912239;29;20052;-76
2023/12/22 05:27:02;;;;;;;11.30;9.43;;;;;;;;;;4878661;29;20056;-76
2023/12/22 05:29:28;;;;;;;9.43;8.20;;;;;;;;;;4880824;29;20048;-77
2023/12/22 05:31:54;;;;;;;15.70;12.05;;;;;;;;;;4881178;29;20039;-76
2023/12/22 05:34:20;;;;;;;9.60;8.70;;;;;;;;;;4911409;29;20055;-74
2023/12/22 05:36:46;;;;;;;14.25;12.85;;;;;;;;;;4910119;29;20103;-77
2023/12/22 05:39:12;;;;;;;9.90;8.85;;;;;;;;;;4907148;29;20092;-76
2023/12/22 05:41:37;;;;;;;13.55;12.25;;;;;;;;;;4911897;29;20028;-76
2023/12/22 05:44:06;;;;;;;10.63;9.65;;;;;;;;;;4912358;29;20040;-76
2023/12/22 05:46:35;;;;;;;9.30;8.25;;;;;;;;;;4911922;29;20051;-75
2023/12/22 05:49:01;;;;;;;10.60;9.35;;;;;;;;;;4910534;29;20460;-74
2023/12/22 05:51:27;;;;;;;9.95;9.05;;;;;;;;;;4910898;29;20036;-76
2023/12/22 05:53:56;;;;;;;14.13;10.85;;;;;;;;;;4908594;29;20047;-76
2023/12/22 05:56:21;;;;;;;15.07;13.65;;;;;;;;;;4910504;29;20036;-76
2023/12/22 05:58:48;;;;;;;9.68;8.88;;;;;;;;;;4910640;29;20047;-75
2023/12/22 06:01:14;;;;;;;9.00;8.23;;;;;;;;;;4909408;29;20040;-78
2023/12/22 06:03:40;;;;;;;10.15;9.13;;;;;;;;;;4893623;29;20123;-75
2023/12/22 06:06:06;;;;;;;7.45;6.75;;;;;;;;;;4909097;29;20071;-78
2023/12/22 06:08:31;;;;;;;13.63;9.38;;;;;;;;;;4893830;29;20029;-75
2023/12/22 06:10:57;;;;;;;8.23;7.57;;;;;;;;;;4911124;29;20032;-75
2023/12/22 06:13:24;;;;;;;10.82;9.68;;;;;;;;;;4911413;29;20048;-75
2023/12/22 06:15:50;;;;;;;11.75;8.70;;;;;;;;;;4888960;29;20036;-77
2023/12/22 06:18:16;;;;;;;12.02;10.77;;;;;;;;;;4910511;29;20122;-78
2023/12/22 06:20:41;;;;;;;8.52;6.38;;;;;;;;;;4910249;29;20036;-76
2023/12/22 06:23:07;;;;;;;6.97;6.35;;;;;;;;;;4894167;29;20040;-78
2023/12/22 06:25:33;;;;;;;13.45;9.48;;;;;;;;;;4908140;29;20402;-77
2023/12/22 06:27:59;;;;;;;9.98;8.65;;;;;;;;;;4911459;29;20047;-77
2023/12/22 06:30:24;;;;;;;10.32;9.30;;;;;;;;;;4892483;29;20107;-76
2023/12/22 06:32:50;;;;;;;7.80;7.05;;;;;;;;;;4911290;29;20130;-77
2023/12/22 06:35:16;;;;;;;8.63;7.78;;;;;;;;;;4914912;29;20131;-79
2023/12/22 06:37:42;;;;;;;11.50;9.60;;;;;;;;;;4911116;29;20048;-80
2023/12/22 06:40:08;;;;;;;11.70;10.52;;;;;;;;;;4912961;29;20063;-80
2023/12/22 06:42:34;;;;;;;8.13;6.57;;;;;;;;;;4933648;29;20099;-79
2023/12/22 06:44:59;;;;;;;10.30;9.25;;;;;;;;;;4904872;29;20507;-77
2023/12/22 06:47:26;;;;;;;9.80;8.82;;;;;;;;;;4899467;29;20040;-76
2023/12/22 06:49:52;;;;;;;10.63;9.63;;;;;;;;;;4910924;29;20389;-77
2023/12/22 06:52:18;;;;;;;9.15;8.30;;;;;;;;;;4911995;29;20020;-77
2023/12/22 06:54:44;;;;;;;9.13;8.23;;;;;;;;;;4905164;29;20064;-77
2023/12/22 06:57:10;;;;;;;9.85;8.82;;;;;;;;;;4913116;29;20059;-78
2023/12/22 06:59:36;;;;;;;14.65;11.00;;;;;;;;;;4906608;29;20048;-78
2023/12/22 07:02:02;;;;;;;12.77;11.63;;;;;;;;;;4912325;29;20020;-78
2023/12/22 07:04:30;;;;;;;8.35;7.55;;;;;;;;;;4892417;29;20059;-79
2023/12/22 07:06:56;;;;;;;10.88;8.90;;;;;;;;;;4917048;29;20577;-82
2023/12/22 07:09:22;;;;;;;8.82;8.10;;;;;;;;;;4913342;29;20028;-77
2023/12/22 07:11:48;;;;;;;9.10;8.20;;;;;;;;;;4927268;29;20051;-78
2023/12/22 07:14:15;;;;;;;10.25;9.25;;;;;;;;;;4912828;29;20068;-76
2023/12/22 07:16:42;;;;;;;16.70;8.43;;;;;;;;;;4912899;29;20119;-75
2023/12/22 07:19:07;;;;;;;9.50;7.57;;;;;;;;;;4880548;29;20036;-76
2023/12/22 07:21:33;;;;;;;10.27;9.35;;;;;;;;;;4913286;29;20042;-77
2023/12/22 07:23:59;;;;;;;10.15;7.45;;;;;;;;;;4875768;29;20037;-74
2023/12/22 07:26:26;;;;;;;7.22;6.53;;;;;;;;;;4878683;29;20083;-73
2023/12/22 07:28:52;;;;;;;9.73;8.98;;;;;;;;;;4914876;29;20131;-73
2023/12/22 07:31:18;;;;;;;11.35;10.18;;;;;;;;;;4898350;29;20163;-73
2023/12/22 07:33:44;;;;;;;9.13;8.23;;;;;;;;;;4885871;29;20051;-72
2023/12/22 07:36:10;;;;;;;8.02;7.28;;;;;;;;;;4893471;29;20419;-72
2023/12/22 07:38:36;;;;;;;8.68;7.97;;;;;;;;;;4893159;29;20120;-72
2023/12/22 07:41:02;;;;;;;8.90;8.20;;;;;;;;;;4881306;29;20056;-72
2023/12/22 07:43:29;;;;;;;8.85;8.18;;;;;;;;;;4894774;29;20028;-71
2023/12/22 07:45:55;;;;;;;10.40;9.50;;;;;;;;;;4877297;29;20075;-73
2023/12/22 07:48:21;;;;;;;8.27;7.57;;;;;;;;;;4877183;29;20033;-72
2023/12/22 07:50:47;;;;;;;9.35;8.43;;;;;;;;;;4878909;29;20535;-72
2023/12/22 07:53:13;;;;;;;12.82;10.27;;;;;;;;;;4896907;29;20040;-73
2023/12/22 07:55:39;;;;;;;10.05;9.00;;;;;;;;;;4896729;29;20048;-73
2023/12/22 07:58:05;;;;;;;9.25;8.35;;;;;;;;;;4901050;29;20028;-76
2023/12/22 08:00:31;;;;;;;9.13;8.23;;;;;;;;;;4933983;29;20040;-76
2023/12/22 08:02:57;;;;;;;11.50;10.30;;;;;;;;;;4919605;29;20300;-75
2023/12/22 08:05:23;;;;;;;9.50;8.57;;;;;;;;;;4896565;29;20087;-76
2023/12/22 08:07:49;;;;;;;9.73;8.80;;;;;;;;;;4896195;29;20024;-77
2023/12/22 08:10:16;;;;;;;10.18;9.13;;;;;;;;;;4865363;29;20040;-77
2023/12/22 08:12:42;;;;;;;9.63;8.85;;;;;;;;;;4896885;29;20039;-78
2023/12/22 08:15:10;;;;;;;12.63;8.90;;;;;;;;;;4913165;29;20043;-76
2023/12/22 08:17:37;;;;;;;11.93;10.57;;;;;;;;;;4913040;29;20053;-78
2023/12/22 08:20:04;;;;;;;15.88;12.07;;;;;;;;;;4914549;29;20039;-77
2023/12/22 08:22:32;;;;;;;13.30;12.00;;;;;;;;;;4911590;29;20048;-76
2023/12/22 08:24:58;;;;;;;9.68;8.85;;;;;;;;;;4914012;29;20151;-80
2023/12/22 08:27:23;;;;;;;12.55;10.23;;;;;;;;;;4915684;29;20163;-80
2023/12/22 08:29:49;;;;;;;12.50;11.27;;;;;;;;;;4927456;29;20060;-79
2023/12/22 08:32:15;;;;;;;15.02;9.82;;;;;;;;;;4915838;29;20470;-79
2023/12/22 08:34:41;;;;;;;17.45;12.77;;;;;;;;;;4895421;29;20035;-79
2023/12/22 08:37:08;;;;;;;12.40;9.52;;;;;;;;;;4915146;29;20122;-79
2023/12/22 08:39:33;;;;;;;11.85;10.75;;;;;;;;;;4914020;29;20040;-76
2023/12/22 08:41:59;;;;;;;12.95;11.65;;;;;;;;;;4914033;29;20028;-78
2023/12/22 08:44:25;;;;;;;12.30;11.00;;;;;;;;;;4908288;29;20048;-78
2023/12/22 08:46:51;;;;;;;13.60;12.27;;;;;;;;;;4896720;29;20495;-79
2023/12/22 08:49:17;;;;;;;14.30;13.00;;;;;;;;;;4905388;29;20507;-78
2023/12/22 08:51:42;;;;;;;12.68;11.60;;;;;;;;;;4917095;29;20048;-80
2023/12/22 08:54:08;;;;;;;9.82;8.85;;;;;;;;;;4916483;29;20414;-80
2023/12/22 08:56:35;;;;;;;11.70;8.15;;;;;;;;;;4900601;29;20040;-79
2023/12/22 08:59:01;;;;;;;10.00;9.05;;;;;;;;;;4905708;29;20028;-80
2023/12/22 09:01:27;;;;;;;9.00;8.32;;;;;;;;;;4881027;29;20036;-81
2023/12/22 09:03:52;;;;;;;8.77;8.07;;;;;;;;;;4896909;29;20029;-79
2023/12/22 09:06:19;;;;;;;8.00;7.38;;;;;;;;;;4902541;29;20411;-79
2023/12/22 09:08:45;;;;;;;10.70;9.60;;;;;;;;;;4931135;29;20032;-81
2023/12/22 09:11:11;;;;;;;9.10;8.30;;;;;;;;;;4913146;29;20072;-80
2023/12/22 09:13:37;;;;;;;9.10;8.10;;;;;;;;;;4916564;29;20237;-78
2023/12/22 09:16:03;;;;;;;8.82;8.10;;;;;;;;;;4917555;29;20060;-79
2023/12/22 09:18:31;;;;;;;9.38;8.65;;;;;;;;;;4887231;29;20043;-76
2023/12/22 09:20:57;;;;;;;7.28;6.65;;;;;;;;;;4896052;29;20087;-76
2023/12/22 09:23:23;;;;;;;8.00;7.40;;;;;;;;;;4897921;29;20043;-77
2023/12/22 09:25:49;;;;;;;6.97;6.45;;;;;;;;;;4879989;29;20040;-76
2023/12/22 09:28:15;;;;;;;8.77;8.10;;;;;;;;;;4918427;29;20059;-76
2023/12/22 09:30:42;;;;;;;10.75;9.82;;;;;;;;;;4888449;29;20083;-77
2023/12/22 09:33:08;;;;;;;8.27;7.50;;;;;;;;;;4925549;29;20028;-77
2023/12/22 09:35:34;;;;;;;8.63;8.00;;;;;;;;;;4898504;29;20047;-76
2023/12/22 09:38:00;;;;;;;8.43;7.78;;;;;;;;;;4897286;29;20411;-78
2023/12/22 09:40:26;;;;;;;11.02;9.90;;;;;;;;;;4895719;29;20044;-76
2023/12/22 09:42:54;;;;;;;11.20;10.27;;;;;;;;;;4895478;29;21010;-75
2023/12/22 09:45:20;;;;;;;8.48;7.78;;;;;;;;;;4899854;29;20142;-75
2023/12/22 09:47:45;;;;;;;7.13;6.40;;;;;;;;;;4896146;29;20116;-76
2023/12/22 09:50:11;;;;;;;10.80;10.00;;;;;;;;;;4897046;29;20036;-76
2023/12/22 09:52:37;;;;;;;8.55;7.85;;;;;;;;;;4896963;29;20043;-75
2023/12/22 09:55:03;;;;;;;9.75;8.95;;;;;;;;;;4914002;29;20127;-74
2023/12/22 09:57:30;;;;;;;5.32;4.93;;;;;;;;;;4914525;29;20096;-73
2023/12/22 09:59:55;;;;;;;8.55;7.85;;;;;;;;;;4913847;29;20027;-74
2023/12/22 10:02:21;;;;;;;8.00;7.40;;;;;;;;;;4897284;29;20043;-74
2023/12/22 10:04:47;;;;;;;6.55;6.05;;;;;;;;;;4912955;29;20063;-77
2023/12/22 10:07:14;;;;;;;7.10;6.50;;;;;;;;;;4896697;29;20040;-76
2023/12/22 10:09:41;;;;;;;8.02;7.35;;;;;;;;;;4896369;29;20044;-76
2023/12/22 10:12:07;;;;;;;7.32;6.80;;;;;;;;;;4896252;29;20032;-76
2023/12/22 10:14:33;;;;;;;7.43;6.72;;;;;;;;;;4896275;29;20032;-76
2023/12/22 10:16:59;;;;;;;7.53;6.82;;;;;;;;;;4881119;29;20083;-76
2023/12/22 10:19:25;;;;;;;6.85;6.35;;;;;;;;;;4896858;29;20447;-75
2023/12/22 10:21:51;;;;;;;7.72;7.07;;;;;;;;;;4912842;29;20036;-76
2023/12/22 10:24:36;;;;;;;6.90;6.45;;;;;;;;;;4913240;29;20040;-75
2023/12/22 10:27:02;;;;;;;6.63;6.07;;;;;;;;;;4913431;29;20048;-76
2023/12/22 10:29:29;;;;;;;7.00;6.50;;;;;;;;;;4896342;29;20060;-75
2023/12/22 10:31:54;;;;;;;6.88;6.10;;;;;;;;;;4913045;29;20525;-74
2023/12/22 10:34:20;;;;;;;7.50;6.80;;;;;;;;;;4850863;29;20044;-74
2023/12/22 10:36:47;;;;;;;4.57;4.20;;;;;;;;;;4909007;29;20028;-75
2023/12/22 10:39:13;;;;;;;5.72;5.15;;;;;;;;;;4875605;29;20036;-75
2023/12/22 10:41:39;;;;;;;5.43;4.95;;;;;;;;;;4881193;29;20040;-75
2023/12/22 10:44:04;;;;;;;6.15;5.68;;;;;;;;;;4913970;29;20036;-76
2023/12/22 10:46:30;;;;;;;8.85;5.88;;;;;;;;;;4898769;29;20059;-76
2023/12/22 10:48:56;;;;;;;5.75;5.35;;;;;;;;;;4894930;29;20056;-76
2023/12/22 10:51:22;;;;;;;5.18;4.78;;;;;;;;;;4879143;29;20079;-76
2023/12/22 10:53:48;;;;;;;9.73;8.77;;;;;;;;;;4917293;29;20037;-76
2023/12/22 10:56:14;;;;;;;8.38;7.57;;;;;;;;;;4912432;29;20043;-76
2023/12/22 10:58:40;;;;;;;8.00;7.18;;;;;;;;;;4897278;29;20149;-76
2023/12/22 11:01:08;;;;;;;8.50;7.80;;;;;;;;;;4890943;29;20044;-76
2023/12/22 11:03:34;;;;;;;8.70;7.13;;;;;;;;;;4911996;29;20040;-75
2023/12/22 11:06:00;;;;;;;7.25;4.85;;;;;;;;;;4926640;29;20577;-75
2023/12/22 11:08:26;;;;;;;10.88;9.25;;;;;;;;;;4896997;29;20036;-76
2023/12/22 11:10:52;;;;;;;7.25;6.60;;;;;;;;;;4912594;29;20036;-76
2023/12/22 11:13:18;;;;;;;6.82;6.32;;;;;;;;;;4911174;29;20095;-76
2023/12/22 11:15:44;;;;;;;6.88;6.35;;;;;;;;;;4911936;29;20610;-76
2023/12/22 11:18:10;;;;;;;7.95;7.18;;;;;;;;;;4912936;29;20047;-75
2023/12/22 11:20:36;;;;;;;6.60;6.03;;;;;;;;;;4882041;29;20047;-76
2023/12/22 11:23:02;;;;;;;6.40;5.90;;;;;;;;;;4914199;29;20120;-75
2023/12/22 11:25:27;;;;;;;6.63;6.13;;;;;;;;;;4912464;29;20474;-76
2023/12/22 11:27:53;;;;;;;8.68;7.88;;;;;;;;;;4917226;29;20044;-74
2023/12/22 11:30:20;;;;;;;6.53;5.93;;;;;;;;;;4915505;29;20066;-73
2023/12/22 11:32:45;;;;;;;7.78;6.47;;;;;;;;;;4915807;29;20032;-76
2023/12/22 11:35:11;;;;;;;7.10;6.53;;;;;;;;;;4883088;29;20119;-75
2023/12/22 11:37:37;;;;;;;4.65;4.25;;;;;;;;;;4919276;29;20063;-74
2023/12/22 11:40:03;;;;;;;7.78;7.03;;;;;;;;;;4905078;29;20047;-75
2023/12/22 11:42:32;;;;;;;7.47;5.55;;;;;;;;;;4921321;29;20415;-76
2023/12/22 11:44:58;;;;;;;7.47;6.82;;;;;;;;;;4908708;29;20075;-78
2023/12/22 11:47:24;;;;;;;5.90;5.40;;;;;;;;;;4925044;29;20095;-76
2023/12/22 11:49:52;;;;;;;6.00;5.40;;;;;;;;;;4924579;29;20075;-76
2023/12/22 11:52:19;;;;;;;6.63;6.00;;;;;;;;;;4922218;29;20036;-76
2023/12/22 11:54:46;;;;;;;6.75;6.15;;;;;;;;;;4904289;29;20069;-76
2023/12/22 11:57:31;;;;;;;4.65;4.28;;;;;;;;;;4916473;29;20036;-76
2023/12/22 12:00:07;;;;;;;6.43;5.85;;;;;;;;;;4899160;29;20092;-76
2023/12/22 12:02:40;;;;;;;7.75;7.15;;;;;;;;;;4917079;29;20040;-76
2023/12/22 12:05:09;;;;;;;5.97;5.45;;;;;;;;;;4916768;29;20096;-76
2023/12/22 12:07:44;;;;;;;7.72;6.95;;;;;;;;;;4884511;29;20040;-76
2023/12/22 12:10:31;;;;;;;5.20;4.80;;;;;;;;;;4915773;29;20044;-76
2023/12/22 12:13:09;;;;;;;6.82;6.22;;;;;;;;;;4909504;29;20043;-76
2023/12/22 12:15:37;;;;;;;6.18;5.75;;;;;;;;;;4916028;29;20048;-76
2023/12/22 12:18:03;;;;;;;6.80;6.18;;;;;;;;;;4915869;29;20123;-76
2023/12/22 12:20:29;;;;;;;7.57;6.88;;;;;;;;;;4915973;29;20094;-76
2023/12/22 12:22:55;;;;;;;8.95;8.13;;;;;;;;;;4915880;29;20028;-76
2023/12/22 12:25:27;;;;;;;6.80;6.15;;;;;;;;;;4915786;29;20048;-76
2023/12/22 12:28:03;;;;;;;7.88;7.13;;;;;;;;;;4898376;29;20036;-76
2023/12/22 12:30:28;;;;;;;8.43;7.57;;;;;;;;;;4899028;29;20112;-76
2023/12/22 12:32:56;;;;;;;6.90;6.28;;;;;;;;;;4898647;29;20028;-76
2023/12/22 12:35:24;;;;;;;7.90;7.03;;;;;;;;;;4915454;29;20050;-76
2023/12/22 12:37:51;;;;;;;10.30;7.22;;;;;;;;;;4899120;29;20043;-76
2023/12/22 12:40:16;;;;;;;8.55;7.68;;;;;;;;;;4899058;29;20040;-77
2023/12/22 12:42:43;;;;;;;7.75;7.05;;;;;;;;;;4915334;29;20118;-76
2023/12/22 12:45:09;;;;;;;9.45;8.70;;;;;;;;;;4883860;29;20134;-76
2023/12/22 12:47:35;;;;;;;6.80;6.20;;;;;;;;;;4915658;29;20039;-76
2023/12/22 12:50:01;;;;;;;9.18;8.20;;;;;;;;;;4913794;29;20060;-77
2023/12/22 12:52:30;;;;;;;7.32;6.72;;;;;;;;;;4898904;29;20454;-77
2023/12/22 12:54:58;;;;;;;7.20;6.50;;;;;;;;;;4899271;29;20048;-76
2023/12/22 12:57:24;;;;;;;9.15;8.25;;;;;;;;;;4900572;29;20593;-77
2023/12/22 12:59:50;;;;;;;6.28;5.25;;;;;;;;;;4900057;29;20087;-77
2023/12/22 13:02:16;;;;;;;7.68;7.05;;;;;;;;;;4884156;29;20391;-77
2023/12/22 13:04:42;;;;;;;7.57;5.40;;;;;;;;;;4899337;29;20167;-77
2023/12/22 13:07:17;;;;;;;6.93;6.32;;;;;;;;;;4916895;29;20490;-77
2023/12/22 13:09:44;;;;;;;8.25;7.57;;;;;;;;;;4900254;29;20135;-78
2023/12/22 13:12:10;;;;;;;8.68;5.88;;;;;;;;;;4900003;29;20510;-78
2023/12/22 13:14:36;;;;;;;6.45;5.85;;;;;;;;;;4931433;29;20570;-77
2023/12/22 13:17:01;;;;;;;6.65;6.13;;;;;;;;;;4916616;29;20126;-78
2023/12/22 13:19:27;;;;;;;7.25;6.65;;;;;;;;;;4898977;29;20067;-78
2023/12/22 13:21:53;;;;;;;6.95;6.22;;;;;;;;;;4916367;29;20032;-79
2023/12/22 13:24:19;;;;;;;7.10;6.32;;;;;;;;;;4915250;29;20040;-78
2023/12/22 13:26:45;;;;;;;8.35;7.57;;;;;;;;;;4917028;29;20051;-79
2023/12/22 13:29:11;;;;;;;7.30;6.60;;;;;;;;;;4883334;29;20578;-79
2023/12/22 13:31:38;;;;;;;7.80;7.00;;;;;;;;;;4899787;29;20421;-78
2023/12/22 13:34:08;;;;;;;9.13;8.38;;;;;;;;;;4915864;29;20620;-77
2023/12/22 13:36:35;;;;;;;7.97;7.28;;;;;;;;;;4899172;29;20126;-78
2023/12/22 13:39:01;;;;;;;8.73;8.05;;;;;;;;;;4915613;29;20036;-79
2023/12/22 13:41:27;;;;;;;9.57;8.77;;;;;;;;;;4915849;29;20065;-78
2023/12/22 13:43:53;;;;;;;6.95;6.13;;;;;;;;;;4898698;29;20032;-78
2023/12/22 13:46:19;;;;;;;7.90;7.20;;;;;;;;;;4899642;29;20490;-78
2023/12/22 13:48:44;;;;;;;10.60;7.63;;;;;;;;;;4901796;29;20025;-77
2023/12/22 13:51:10;;;;;;;9.48;8.50;;;;;;;;;;4929962;29;20404;-76
2023/12/22 13:53:46;;;;;;;13.50;11.23;;;;;;;;;;4921609;29;20036;-77
2023/12/22 13:56:13;;;;;;;14.38;9.18;;;;;;;;;;4901292;29;20078;-77
2023/12/22 13:58:46;;;;;;;10.43;9.32;;;;;;;;;;4901068;29;20051;-76
2023/12/22 14:01:17;;;;;;;11.07;9.40;;;;;;;;;;4915064;29;20048;-78
2023/12/22 14:03:44;;;;;;;12.32;11.02;;;;;;;;;;4897353;29;20119;-77
2023/12/22 14:06:11;;;;;;;10.85;9.70;;;;;;;;;;4897167;29;20044;-77
2023/12/22 14:08:41;;;;;;;12.23;8.85;;;;;;;;;;4913999;29;20131;-77
2023/12/22 14:11:07;;;;;;;11.57;8.88;;;;;;;;;;4897048;29;20494;-77
2023/12/22 14:13:35;;;;;;;8.68;7.97;;;;;;;;;;4914221;29;20050;-78
2023/12/22 14:16:01;;;;;;;9.23;7.82;;;;;;;;;;4897092;29;20043;-78
2023/12/22 14:18:27;;;;;;;9.00;8.13;;;;;;;;;;4914153;29;20494;-77
2023/12/22 14:20:53;;;;;;;7.15;6.45;;;;;;;;;;4913797;29;20050;-77
2023/12/22 14:23:19;;;;;;;10.30;9.18;;;;;;;;;;4914051;29;20032;-78
2023/12/22 14:25:45;;;;;;;11.52;9.73;;;;;;;;;;4897133;29;20083;-76
2023/12/22 14:28:10;;;;;;;11.68;9.80;;;;;;;;;;4896988;29;20569;-78
2023/12/22 14:30:36;;;;;;;12.63;11.30;;;;;;;;;;4914223;29;20131;-80
2023/12/22 14:33:02;;;;;;;16.75;8.10;;;;;;;;;;4895160;29;20623;-78